createdAt,value
2019-05-16T00:00:51.203Z,15.69
2019-05-16T00:03:21.337Z,15.71
2019-05-16T00:05:54.504Z,15.74
2019-05-16T00:08:23.586Z,15.72
2019-05-16T00:10:53.957Z,15.74
2019-05-16T00:13:24.207Z,15.64
2019-05-16T00:15:54.598Z,15.46
2019-05-16T00:18:24.848Z,15.55
2019-05-16T00:20:55.023Z,15.62
2019-05-16T00:23:25.259Z,15.61
2019-05-16T00:25:55.673Z,15.64
2019-05-16T00:28:28.424Z,15.65
2019-05-16T00:30:59.237Z,15.53
2019-05-16T00:33:29.685Z,15.58
2019-05-16T00:36:05.323Z,15.64
2019-05-16T00:38:33.533Z,15.66
2019-05-16T00:41:05.242Z,15.65
2019-05-16T00:43:37.782Z,15.58
2019-05-16T00:46:08.246Z,15.51
2019-05-16T00:48:38.611Z,15.52
2019-05-16T00:51:08.971Z,15.53
2019-05-16T00:53:40.246Z,15.48
2019-05-16T00:56:10.689Z,15.52
2019-05-16T00:58:41.037Z,15.53
2019-05-16T01:01:12.180Z,15.47
2019-05-16T01:03:42.519Z,15.51
2019-05-16T01:06:18.560Z,15.51
2019-05-16T01:08:44.894Z,15.47
2019-05-16T01:11:15.132Z,15.48
2019-05-16T01:13:45.584Z,15.49
2019-05-16T01:16:18.536Z,15.51
2019-05-16T01:18:48.730Z,15.49
2019-05-16T01:21:21.914Z,15.46
2019-05-16T01:23:52.933Z,15.38
2019-05-16T01:26:23.172Z,15.35
2019-05-16T01:28:53.524Z,15.39
2019-05-16T01:31:24.654Z,15.42
2019-05-16T01:33:58.310Z,15.28
2019-05-16T01:36:36.859Z,15.30
2019-05-16T01:39:00.936Z,15.36
2019-05-16T01:41:31.218Z,15.37
2019-05-16T01:44:01.496Z,15.30
2019-05-16T01:46:31.871Z,15.29
2019-05-16T01:49:02.458Z,15.23
2019-05-16T01:51:32.767Z,15.31
2019-05-16T01:54:03.000Z,15.33
2019-05-16T01:56:33.787Z,15.37
2019-05-16T01:59:04.153Z,15.41
2019-05-16T02:01:34.367Z,15.42
2019-05-16T02:04:04.660Z,15.39
2019-05-16T02:06:50.097Z,15.40
2019-05-16T02:09:11.472Z,15.41
2019-05-16T02:11:40.221Z,15.45
2019-05-16T02:14:10.610Z,15.43
2019-05-16T02:16:43.406Z,15.44
2019-05-16T02:19:13.739Z,15.47
2019-05-16T02:21:43.895Z,15.51
2019-05-16T02:24:14.015Z,15.53
2019-05-16T02:26:44.295Z,15.52
2019-05-16T02:29:14.505Z,15.40
2019-05-16T02:31:44.746Z,15.41
2019-05-16T02:34:15.495Z,15.44
2019-05-16T02:37:09.570Z,15.33
2019-05-16T02:39:21.238Z,15.29
2019-05-16T02:41:52.121Z,15.26
2019-05-16T02:44:24.554Z,15.27
2019-05-16T02:46:54.629Z,15.27
2019-05-16T02:49:24.786Z,15.33
2019-05-16T02:51:55.620Z,15.31
2019-05-16T02:54:25.936Z,15.44
2019-05-16T02:56:56.493Z,15.56
2019-05-16T02:59:27.148Z,15.68
2019-05-16T03:02:00.614Z,15.78
2019-05-16T03:04:32.223Z,15.85
2019-05-16T03:07:03.583Z,15.89
2019-05-16T03:09:34.761Z,15.87
2019-05-16T03:12:05.159Z,15.79
2019-05-16T03:14:35.439Z,15.81
2019-05-16T03:17:07.204Z,15.83
2019-05-16T03:19:41.637Z,15.85
2019-05-16T03:22:12.210Z,15.84
2019-05-16T03:24:42.432Z,15.73
2019-05-16T03:27:13.225Z,15.76
2019-05-16T03:29:43.807Z,15.66
2019-05-16T03:32:14.664Z,15.58
2019-05-16T03:34:45.013Z,15.54
2019-05-16T03:37:15.494Z,15.53
2019-05-16T03:39:45.773Z,15.52
2019-05-16T03:42:15.920Z,15.61
2019-05-16T03:44:46.278Z,15.74
2019-05-16T03:47:16.680Z,15.77
2019-05-16T03:49:47.074Z,15.76
2019-05-16T03:52:20.541Z,15.77
2019-05-16T03:54:51.190Z,15.80
2019-05-16T03:57:21.909Z,15.87
2019-05-16T03:59:52.143Z,15.78
2019-05-16T04:02:22.347Z,15.78
2019-05-16T04:04:52.747Z,15.79
2019-05-16T04:07:23.086Z,15.82
2019-05-16T04:09:53.443Z,15.86
2019-05-16T04:12:23.622Z,15.86
2019-05-16T04:14:53.948Z,15.88
2019-05-16T04:17:24.307Z,15.84
2019-05-16T04:19:54.610Z,15.78
2019-05-16T04:22:24.862Z,15.62
2019-05-16T04:24:55.136Z,15.70
2019-05-16T04:27:25.452Z,15.66
2019-05-16T04:29:55.728Z,15.75
2019-05-16T04:32:25.984Z,15.82
2019-05-16T04:34:56.246Z,15.95
2019-05-16T04:37:26.577Z,16.02
2019-05-16T04:39:56.844Z,16.10
2019-05-16T04:42:26.956Z,16.15
2019-05-16T04:44:57.173Z,16.09
2019-05-16T04:47:27.424Z,16.01
2019-05-16T04:50:00.991Z,16.16
2019-05-16T04:52:30.643Z,16.22
2019-05-16T04:55:01.178Z,16.28
2019-05-16T04:57:31.519Z,16.36
2019-05-16T05:00:02.783Z,16.40
2019-05-16T05:02:33.192Z,16.43
2019-05-16T05:05:03.767Z,16.56
2019-05-16T05:07:35.057Z,16.84
2019-05-16T05:10:06.370Z,16.83
2019-05-16T05:12:36.622Z,17.02
2019-05-16T05:15:11.238Z,17.17
2019-05-16T05:17:41.522Z,17.27
2019-05-16T05:20:14.740Z,17.38
2019-05-16T05:22:45.077Z,17.47
2019-05-16T05:25:15.589Z,17.69
2019-05-16T05:27:49.932Z,17.89
2019-05-16T05:30:22.205Z,17.88
2019-05-16T05:32:52.578Z,17.82
2019-05-16T05:35:22.866Z,17.87
2019-05-16T05:37:53.024Z,17.96
2019-05-16T05:40:23.666Z,17.94
2019-05-16T05:42:54.663Z,17.81
2019-05-16T05:45:24.919Z,17.86
2019-05-16T05:47:55.716Z,17.95
2019-05-16T05:50:26.005Z,17.77
2019-05-16T05:52:56.414Z,17.70
2019-05-16T05:55:27.092Z,17.62
2019-05-16T05:58:00.907Z,17.38
2019-05-16T06:00:30.640Z,17.20
2019-05-16T06:03:00.929Z,17.10
2019-05-16T06:05:31.052Z,17.09
2019-05-16T06:08:01.314Z,17.10
2019-05-16T06:10:31.565Z,17.12
2019-05-16T06:13:01.660Z,17.25
2019-05-16T06:15:32.035Z,17.26
2019-05-16T06:18:02.117Z,17.52
2019-05-16T06:20:32.316Z,17.76
2019-05-16T06:23:02.665Z,17.97
2019-05-16T06:25:32.945Z,18.26
2019-05-16T06:28:03.209Z,18.37
2019-05-16T06:30:33.546Z,18.71
2019-05-16T06:33:03.668Z,19.02
2019-05-16T06:35:33.873Z,18.75
2019-05-16T06:38:04.556Z,19.08
2019-05-16T06:40:34.749Z,19.33
2019-05-16T06:43:05.037Z,19.47
2019-05-16T06:45:35.456Z,19.60
2019-05-16T06:48:05.689Z,19.57
2019-05-16T06:50:35.945Z,19.40
2019-05-16T06:53:06.330Z,19.27
2019-05-16T06:55:36.607Z,19.17
2019-05-16T06:58:06.851Z,19.11
2019-05-16T07:00:37.071Z,19.09
2019-05-16T07:03:09.509Z,19.05
2019-05-16T07:05:40.647Z,18.88
2019-05-16T07:08:12.811Z,18.77
2019-05-16T07:10:43.261Z,18.45
2019-05-16T07:13:13.582Z,18.20
2019-05-16T07:15:44.797Z,18.34
2019-05-16T07:18:15.154Z,18.45
2019-05-16T07:20:45.578Z,18.38
2019-05-16T07:23:16.097Z,18.34
2019-05-16T07:25:46.513Z,18.39
2019-05-16T07:28:16.856Z,18.36
2019-05-16T07:30:49.836Z,18.35
2019-05-16T07:33:21.008Z,18.34
2019-05-16T07:35:51.731Z,18.33
2019-05-16T07:38:22.159Z,18.27
2019-05-16T07:40:52.533Z,18.10
2019-05-16T07:43:22.954Z,18.01
2019-05-16T07:45:53.320Z,17.90
2019-05-16T07:48:23.726Z,18.05
2019-05-16T07:50:54.127Z,18.00
2019-05-16T07:53:24.458Z,18.08
2019-05-16T07:55:54.791Z,18.12
2019-05-16T07:58:25.163Z,18.24
2019-05-16T08:01:02.617Z,18.38
2019-05-16T08:03:30.186Z,18.51
2019-05-16T08:06:01.692Z,18.66
2019-05-16T08:08:31.982Z,18.68
2019-05-16T08:11:02.378Z,18.86
2019-05-16T08:13:32.952Z,19.06
2019-05-16T08:16:03.668Z,19.33
2019-05-16T08:18:34.013Z,19.76
2019-05-16T08:21:04.522Z,20.13
2019-05-16T08:23:34.971Z,20.53
2019-05-16T08:26:05.714Z,20.94
2019-05-16T08:28:36.133Z,21.51
2019-05-16T08:31:06.448Z,21.93
2019-05-16T08:33:36.792Z,22.14
2019-05-16T08:36:09.096Z,22.26
2019-05-16T08:38:42.999Z,22.50
2019-05-16T08:41:16.905Z,22.44
2019-05-16T08:43:46.632Z,22.43
2019-05-16T08:46:20.720Z,22.33
2019-05-16T08:50:06.253Z,22.68
2019-05-16T08:51:23.479Z,22.69
2019-05-16T08:53:53.889Z,22.93
2019-05-16T08:56:24.263Z,23.15
2019-05-16T08:58:54.753Z,23.46
2019-05-16T09:01:25.141Z,23.55
2019-05-16T09:03:55.500Z,23.05
2019-05-16T09:06:26.458Z,22.97
2019-05-16T09:08:59.600Z,22.67
2019-05-16T09:11:43.313Z,22.37
2019-05-16T09:14:01.100Z,21.99
2019-05-16T09:16:31.873Z,21.89
2019-05-16T09:19:02.280Z,21.88
2019-05-16T09:21:32.671Z,22.06
2019-05-16T09:24:02.987Z,22.24
2019-05-16T09:26:33.414Z,22.30
2019-05-16T09:29:04.165Z,22.31
2019-05-16T09:31:38.267Z,22.19
2019-05-16T09:34:07.529Z,22.21
2019-05-16T09:36:38.077Z,22.49
2019-05-16T09:39:09.613Z,22.47
2019-05-16T09:41:54.639Z,22.69
2019-05-16T09:44:12.099Z,22.81
2019-05-16T09:46:47.153Z,22.63
2019-05-16T09:49:24.256Z,22.86
2019-05-16T09:51:49.758Z,23.03
2019-05-16T09:54:20.118Z,22.92
2019-05-16T09:56:50.591Z,22.95
2019-05-16T09:59:21.017Z,23.11
2019-05-16T10:01:51.370Z,23.13
2019-05-16T10:04:21.791Z,23.20
2019-05-16T10:06:52.665Z,23.32
2019-05-16T10:09:37.795Z,23.42
2019-05-16T10:12:08.116Z,23.47
2019-05-16T10:14:27.333Z,23.39
2019-05-16T10:16:57.994Z,23.41
2019-05-16T10:19:28.807Z,23.53
2019-05-16T10:22:00.812Z,23.55
2019-05-16T10:24:31.234Z,23.79
2019-05-16T10:27:01.707Z,23.94
2019-05-16T10:29:32.001Z,23.97
2019-05-16T10:32:02.314Z,24.18
2019-05-16T10:34:32.771Z,24.15
2019-05-16T10:37:03.091Z,24.12
2019-05-16T10:39:33.477Z,23.82
2019-05-16T10:42:06.641Z,23.85
2019-05-16T10:44:38.419Z,23.53
2019-05-16T10:47:08.261Z,23.57
2019-05-16T10:49:41.723Z,23.50
2019-05-16T10:52:10.689Z,23.46
2019-05-16T10:54:54.167Z,23.39
2019-05-16T10:57:13.702Z,23.34
2019-05-16T11:00:01.862Z,23.18
2019-05-16T11:02:19.605Z,23.19
2019-05-16T11:04:59.965Z,23.05
2019-05-16T11:07:22.206Z,23.08
2019-05-16T11:09:58.596Z,23.22
2019-05-16T11:12:43.141Z,23.20
2019-05-16T11:14:56.753Z,23.12
2019-05-16T11:17:27.841Z,23.14
2019-05-16T11:19:58.411Z,23.14
2019-05-16T11:22:31.698Z,23.39
2019-05-16T11:25:02.526Z,23.45
2019-05-16T11:27:32.874Z,23.43
2019-05-16T11:30:03.222Z,23.47
2019-05-16T11:32:34.132Z,23.59
2019-05-16T11:35:04.500Z,23.67
2019-05-16T11:37:37.538Z,23.79
2019-05-16T11:40:08.222Z,23.67
2019-05-16T11:42:38.577Z,23.47
2019-05-16T11:45:10.524Z,23.36
2019-05-16T11:47:41.724Z,23.52
2019-05-16T11:50:12.755Z,23.65
2019-05-16T11:52:43.188Z,23.81
2019-05-16T11:55:14.567Z,23.94
2019-05-16T11:57:47.354Z,23.95
2019-05-16T12:00:18.123Z,24.09
2019-05-16T12:02:48.783Z,24.29
2019-05-16T12:05:19.550Z,24.48
2019-05-16T12:07:49.948Z,24.44
2019-05-16T12:10:20.563Z,24.18
2019-05-16T12:12:50.951Z,23.76
2019-05-16T12:15:21.785Z,23.68
2019-05-16T12:18:00.814Z,23.03
2019-05-16T12:20:24.631Z,22.39
2019-05-16T12:22:55.012Z,22.37
2019-05-16T12:25:27.327Z,22.16
2019-05-16T12:27:57.709Z,22.07
2019-05-16T12:30:28.082Z,22.08
2019-05-16T12:32:58.890Z,22.09
2019-05-16T12:35:29.236Z,21.68
2019-05-16T12:37:59.801Z,21.63
2019-05-16T12:40:30.272Z,21.64
2019-05-16T12:43:00.734Z,21.65
2019-05-16T12:45:31.055Z,21.60
2019-05-16T12:48:01.576Z,21.44
2019-05-16T12:50:31.900Z,21.53
2019-05-16T12:53:02.593Z,21.32
2019-05-16T12:55:33.199Z,21.29
2019-05-16T12:58:12.788Z,21.54
2019-05-16T13:00:37.130Z,21.77
2019-05-16T13:03:07.925Z,21.82
2019-05-16T13:05:38.779Z,21.85
2019-05-16T13:08:09.125Z,21.75
2019-05-16T13:10:39.515Z,21.91
2019-05-16T13:13:10.288Z,21.78
2019-05-16T13:15:42.348Z,21.73
2019-05-16T13:18:13.024Z,21.68
2019-05-16T13:20:46.792Z,21.62
2019-05-16T13:23:18.215Z,21.58
2019-05-16T13:25:48.920Z,21.53
2019-05-16T13:28:21.843Z,21.34
2019-05-16T13:30:52.287Z,21.23
2019-05-16T13:33:22.622Z,20.77
2019-05-16T13:35:53.384Z,20.56
2019-05-16T13:38:23.903Z,20.51
2019-05-16T13:40:57.046Z,20.57
2019-05-16T13:43:27.190Z,20.54
2019-05-16T13:45:57.787Z,20.43
2019-05-16T13:48:28.873Z,20.44
2019-05-16T13:51:11.075Z,19.92
2019-05-16T13:53:36.829Z,19.79
2019-05-16T13:56:13.073Z,19.82
2019-05-16T13:58:39.528Z,19.81
2019-05-16T14:01:10.008Z,19.53
2019-05-16T14:03:40.487Z,19.31
2019-05-16T14:06:10.992Z,19.31
2019-05-16T14:08:42.836Z,19.26
2019-05-16T14:11:13.361Z,19.33
2019-05-16T14:13:46.769Z,19.38
2019-05-16T14:16:17.951Z,19.58
2019-05-16T14:18:48.736Z,19.50
2019-05-16T14:21:19.485Z,19.63
2019-05-16T14:23:53.378Z,19.59
2019-05-16T14:26:22.098Z,19.28
2019-05-16T14:28:52.572Z,19.31
2019-05-16T14:31:24.556Z,19.10
2019-05-16T14:33:56.763Z,19.19
2019-05-16T14:36:27.991Z,19.16
2019-05-16T14:38:58.532Z,19.21
2019-05-16T14:41:29.035Z,18.98
2019-05-16T14:43:59.600Z,19.12
2019-05-16T14:46:32.722Z,19.22
2019-05-16T14:49:03.201Z,19.04
2019-05-16T14:51:34.037Z,19.11
2019-05-16T14:54:07.436Z,19.09
2019-05-16T14:56:38.623Z,18.96
2019-05-16T14:59:08.989Z,18.98
2019-05-16T15:01:39.494Z,18.84
2019-05-16T15:04:10.328Z,18.87
2019-05-16T15:06:40.697Z,18.92
2019-05-16T15:09:11.434Z,18.86
2019-05-16T15:11:41.880Z,18.84
2019-05-16T15:14:12.337Z,18.93
2019-05-16T15:16:43.024Z,18.93
2019-05-16T15:19:17.394Z,18.76
2019-05-16T15:21:47.827Z,18.70
2019-05-16T15:24:18.261Z,18.73
2019-05-16T15:26:48.690Z,18.78
2019-05-16T15:29:19.153Z,18.91
2019-05-16T15:31:49.496Z,18.80
2019-05-16T15:34:20.072Z,18.63
2019-05-16T15:36:50.547Z,18.42
2019-05-16T15:39:20.917Z,18.12
2019-05-16T15:41:51.341Z,18.20
2019-05-16T15:44:22.138Z,18.14
2019-05-16T15:46:52.536Z,18.28
2019-05-16T15:49:22.963Z,18.13
2019-05-16T15:51:53.567Z,18.26
2019-05-16T15:54:28.565Z,18.23
2019-05-16T15:56:58.337Z,18.29
2019-05-16T15:59:28.705Z,18.34
2019-05-16T16:01:59.091Z,18.40
2019-05-16T16:04:29.451Z,18.44
2019-05-16T16:06:59.910Z,18.48
2019-05-16T16:09:30.411Z,18.53
2019-05-16T16:12:00.965Z,18.55
2019-05-16T16:14:31.316Z,18.54
2019-05-16T16:17:01.760Z,18.29
2019-05-16T16:19:32.242Z,18.20
2019-05-16T16:22:02.598Z,18.14
2019-05-16T16:24:33.041Z,18.07
2019-05-16T16:27:03.515Z,17.94
2019-05-16T16:29:33.962Z,17.92
2019-05-16T16:32:06.499Z,17.91
2019-05-16T16:34:36.872Z,17.71
2019-05-16T16:37:07.710Z,17.73
2019-05-16T16:39:38.579Z,17.61
2019-05-16T16:42:09.158Z,17.64
2019-05-16T16:44:39.474Z,17.63
2019-05-16T16:47:09.911Z,17.63
2019-05-16T16:49:40.758Z,17.55
2019-05-16T16:52:11.386Z,17.54
2019-05-16T16:54:41.746Z,17.46
2019-05-16T16:57:13.123Z,17.49
2019-05-16T16:59:43.945Z,17.52
2019-05-16T17:02:16.997Z,17.51
2019-05-16T17:04:50.930Z,17.48
2019-05-16T17:07:18.701Z,17.44
2019-05-16T17:09:49.193Z,17.44
2019-05-16T17:12:19.716Z,17.39
2019-05-16T17:14:50.111Z,17.36
2019-05-16T17:17:20.810Z,17.34
2019-05-16T17:19:51.672Z,17.31
2019-05-16T17:22:22.107Z,17.29
2019-05-16T17:24:56.620Z,17.25
2019-05-16T17:27:27.044Z,17.06
2019-05-16T17:30:00.610Z,16.97
2019-05-16T17:32:29.681Z,16.87
2019-05-16T17:35:00.141Z,16.87
2019-05-16T17:37:30.969Z,16.87
2019-05-16T17:40:01.470Z,16.77
2019-05-16T17:42:34.494Z,16.76
2019-05-16T17:45:04.166Z,16.73
2019-05-16T17:47:36.889Z,16.73
2019-05-16T17:50:08.572Z,16.78
2019-05-16T17:52:39.006Z,16.73
2019-05-16T17:55:11.146Z,16.66
2019-05-16T17:57:41.602Z,16.63
2019-05-16T18:00:16.670Z,16.68
2019-05-16T18:02:46.520Z,16.71
2019-05-16T18:05:18.161Z,16.72
2019-05-16T18:07:48.636Z,16.69
2019-05-16T18:10:19.964Z,16.69
2019-05-16T18:12:50.563Z,16.68
2019-05-16T18:15:23.164Z,16.61
2019-05-16T18:17:53.578Z,16.58
2019-05-16T18:20:26.586Z,16.54
2019-05-16T18:22:57.283Z,16.48
2019-05-16T18:25:28.095Z,16.48
2019-05-16T18:27:58.978Z,16.46
2019-05-16T18:30:29.529Z,16.45
2019-05-16T18:33:00.002Z,16.41
2019-05-16T18:35:30.374Z,16.39
2019-05-16T18:38:00.765Z,16.38
2019-05-16T18:40:31.289Z,16.38
2019-05-16T18:43:01.740Z,16.34
2019-05-16T18:45:32.117Z,16.31
2019-05-16T18:48:02.610Z,16.14
2019-05-16T18:50:33.054Z,16.11
2019-05-16T18:53:03.429Z,16.12
2019-05-16T18:55:33.880Z,16.17
2019-05-16T18:58:07.477Z,16.13
2019-05-16T19:00:37.501Z,16.07
2019-05-16T19:03:08.472Z,15.94
2019-05-16T19:05:38.954Z,15.87
2019-05-16T19:08:09.365Z,15.81
2019-05-16T19:10:40.829Z,15.78
2019-05-16T19:13:12.510Z,15.78
2019-05-16T19:15:42.959Z,15.78
2019-05-16T19:18:13.370Z,15.82
2019-05-16T19:20:46.075Z,15.75
2019-05-16T19:23:17.609Z,15.75
2019-05-16T19:25:48.024Z,15.72
2019-05-16T19:28:18.436Z,15.67
2019-05-16T19:30:50.238Z,15.65
2019-05-16T19:33:20.759Z,15.70
2019-05-16T19:35:51.213Z,15.68
2019-05-16T19:38:21.644Z,15.71
2019-05-16T19:40:53.009Z,15.71
2019-05-16T19:43:23.389Z,15.74
2019-05-16T19:45:57.072Z,15.73
2019-05-16T19:48:27.158Z,15.75
2019-05-16T19:50:57.709Z,15.80
2019-05-16T19:53:28.109Z,15.84
2019-05-16T19:55:58.593Z,15.80
2019-05-16T19:58:31.154Z,15.76
2019-05-16T20:01:03.189Z,15.79
2019-05-16T20:03:33.824Z,15.74
2019-05-16T20:06:04.235Z,15.70
2019-05-16T20:08:34.621Z,15.73
2019-05-16T20:11:05.673Z,15.70
2019-05-16T20:13:36.747Z,15.68
2019-05-16T20:16:07.589Z,15.69
2019-05-16T20:18:38.054Z,15.70
2019-05-16T20:21:08.472Z,15.77
2019-05-16T20:23:38.865Z,15.75
2019-05-16T20:26:09.341Z,15.77
2019-05-16T20:28:40.047Z,15.78
2019-05-16T20:31:11.043Z,15.81
2019-05-16T20:33:41.598Z,15.81
2019-05-16T20:36:12.005Z,15.77
2019-05-16T20:38:43.050Z,15.74
2019-05-16T20:41:13.460Z,15.75
2019-05-16T20:43:43.896Z,15.71
2019-05-16T20:46:16.365Z,15.74
2019-05-16T20:48:46.504Z,15.78
2019-05-16T20:51:20.060Z,15.81
2019-05-16T20:53:49.843Z,15.80
2019-05-16T20:56:20.429Z,15.76
2019-05-16T20:58:50.903Z,15.73
2019-05-16T21:01:21.308Z,15.74
2019-05-16T21:03:51.778Z,15.80
2019-05-16T21:06:22.279Z,15.85
2019-05-16T21:08:52.667Z,15.82
2019-05-16T21:11:23.440Z,15.79
2019-05-16T21:13:56.534Z,15.91
2019-05-16T21:16:27.151Z,15.92
2019-05-16T21:18:57.599Z,16.00
2019-05-16T21:21:28.357Z,15.99
2019-05-16T21:23:59.434Z,15.95
2019-05-16T21:26:30.803Z,15.95
2019-05-16T21:29:01.499Z,15.98
2019-05-16T21:31:32.208Z,15.98
2019-05-16T21:34:02.943Z,16.03
2019-05-16T21:36:33.423Z,16.03
2019-05-16T21:39:08.128Z,16.05
2019-05-16T21:41:37.440Z,16.04
2019-05-16T21:44:08.004Z,16.09
2019-05-16T21:46:38.453Z,16.07
2019-05-16T21:49:09.016Z,16.09
2019-05-16T21:51:40.165Z,16.15
2019-05-16T21:54:10.565Z,16.19
2019-05-16T21:56:41.001Z,16.19
2019-05-16T21:59:11.697Z,16.18
2019-05-16T22:01:43.101Z,16.23
2019-05-16T22:04:14.072Z,16.23
2019-05-16T22:06:44.439Z,16.26
2019-05-16T22:09:14.855Z,16.28
2019-05-16T22:11:46.551Z,16.28
2019-05-16T22:14:19.815Z,16.28
2019-05-16T22:16:50.374Z,16.30
2019-05-16T22:19:20.828Z,16.27
2019-05-16T22:21:51.242Z,16.26
2019-05-16T22:24:21.671Z,16.24
2019-05-16T22:26:51.986Z,16.22
2019-05-16T22:29:22.400Z,16.16
2019-05-16T22:31:52.894Z,16.09
2019-05-16T22:34:23.241Z,16.10
2019-05-16T22:36:53.678Z,16.15
2019-05-16T22:39:26.372Z,16.18
2019-05-16T22:41:57.456Z,16.17
2019-05-16T22:44:27.775Z,16.12
2019-05-16T22:46:58.183Z,16.09
2019-05-16T22:49:28.525Z,16.00
2019-05-16T22:51:58.922Z,15.93
2019-05-16T22:54:29.904Z,15.91
2019-05-16T22:57:00.274Z,15.83
2019-05-16T22:59:30.695Z,15.79
2019-05-16T23:02:02.037Z,15.73
2019-05-16T23:04:32.434Z,15.67
2019-05-16T23:07:02.795Z,15.65
2019-05-16T23:09:33.287Z,15.60
2019-05-16T23:12:04.018Z,15.65
2019-05-16T23:14:34.829Z,15.72
2019-05-16T23:17:06.830Z,15.74
2019-05-16T23:19:37.158Z,15.73
2019-05-16T23:22:08.483Z,15.67
2019-05-16T23:24:38.955Z,15.62
2019-05-16T23:27:09.437Z,15.62
2019-05-16T23:29:40.831Z,15.57
2019-05-16T23:32:11.297Z,15.61
2019-05-16T23:34:41.651Z,15.66
2019-05-16T23:37:12.047Z,15.77
2019-05-16T23:39:42.586Z,15.91
2019-05-16T23:42:13.095Z,16.07
2019-05-16T23:44:43.458Z,16.24
2019-05-16T23:47:13.856Z,16.32
2019-05-16T23:49:44.220Z,16.42
2019-05-16T23:52:16.663Z,16.57
2019-05-16T23:54:47.551Z,16.62
2019-05-16T23:57:18.164Z,16.77
2019-05-16T23:59:48.593Z,16.87
